Time;durP1;ratioP1;P1;durP2;ratioP2;P2;SDS_P1;SDS_P2;PMS_P1;PMS_P2;Temp;Humidity;BMP_temperature;BMP_pressure;BME280_temperature;BME280_humidity;BME280_pressure;Samples;Min_cycle;Max_cycle;Signal;HPM_P1;HPM_P2
2022/01/12 00:01:42;;;;;;;0.85;0.38;;;2.20;99.90;;;;;;4995491;28;20466;-74
2022/01/12 00:04:10;;;;;;;2.13;1.00;;;2.20;99.90;;;;;;4995413;28;20018;-74
2022/01/12 00:06:36;;;;;;;0.47;0.47;;;2.30;99.90;;;;;;4994989;28;20026;-76
2022/01/12 00:09:06;;;;;;;0.25;0.25;;;2.30;99.90;;;;;;4995331;28;20034;-77
2022/01/12 00:11:33;;;;;;;0.10;0.10;;;2.30;99.90;;;;;;5010216;28;20022;-74
2022/01/12 00:13:59;;;;;;;0.30;0.30;;;2.30;99.90;;;;;;4995024;28;20025;-74
2022/01/12 00:16:25;;;;;;;0.52;0.52;;;2.20;99.90;;;;;;4994849;28;20030;-76
2022/01/12 00:18:50;;;;;;;0.13;0.13;;;2.20;99.90;;;;;;5026328;28;20433;-77
2022/01/12 00:21:16;;;;;;;0.10;0.10;;;2.20;99.90;;;;;;4994182;28;20026;-74
2022/01/12 00:23:42;;;;;;;1.65;1.13;;;2.20;99.90;;;;;;4993924;28;20077;-74
2022/01/12 00:26:23;;;;;;;0.60;0.60;;;2.20;99.90;;;;;;4998652;28;20437;-74
2022/01/12 00:34:18;;;;;;;3.00;1.05;;;2.10;99.90;;;;;;5014247;28;20057;-76
2022/01/12 00:36:43;;;;;;;0.30;0.30;;;2.10;99.90;;;;;;5014030;28;20489;-77
2022/01/12 00:39:10;;;;;;;0.47;0.40;;;2.10;99.90;;;;;;5014256;28;20028;-74
2022/01/12 00:41:37;;;;;;;1.45;0.82;;;2.10;99.90;;;;;;5014377;28;20099;-77
2022/01/12 00:44:07;;;;;;;0.85;0.75;;;2.10;99.90;;;;;;5014110;28;20378;-76
2022/01/12 00:46:33;;;;;;;0.30;0.30;;;2.10;99.90;;;;;;5014152;28;20028;-77
2022/01/12 00:48:58;;;;;;;0.10;0.10;;;2.10;99.90;;;;;;5013946;28;20026;-76
2022/01/12 00:51:26;;;;;;;1.00;0.90;;;2.10;99.90;;;;;;5013502;28;20022;-74
2022/01/12 00:53:53;;;;;;;0.52;0.52;;;2.10;99.90;;;;;;5013863;28;20026;-74
2022/01/12 00:56:19;;;;;;;0.10;0.10;;;2.10;99.90;;;;;;5013952;28;20046;-76
2022/01/12 00:58:45;;;;;;;0.63;0.63;;;2.00;99.90;;;;;;5009841;28;20057;-76
2022/01/12 01:01:11;;;;;;;0.28;0.28;;;2.10;99.90;;;;;;5025770;28;20452;-77
2022/01/12 01:03:37;;;;;;;0.52;0.52;;;2.10;99.90;;;;;;4994306;28;20034;-74
2022/01/12 01:06:03;;;;;;;0.00;0.00;;;2.10;99.90;;;;;;4994035;28;20106;-76
2022/01/12 01:08:28;;;;;;;0.10;0.10;;;2.10;99.90;;;;;;4994082;28;20022;-74
2022/01/12 01:10:56;;;;;;;0.45;0.45;;;2.10;99.90;;;;;;4993997;28;20414;-76
2022/01/12 01:13:27;;;;;;;0.10;0.10;;;2.10;99.90;;;;;;4992650;28;20055;-76
2022/01/12 01:26:37;;;;;;;0.45;0.45;;;2.20;99.90;;;;;;5001420;28;20072;-76
2022/01/12 01:29:03;;;;;;;0.10;0.10;;;2.30;99.90;;;;;;5013278;28;20457;-76
2022/01/12 01:31:32;;;;;;;0.20;0.20;;;2.30;99.90;;;;;;5011744;28;20101;-74
2022/01/12 01:34:05;;;;;;;0.15;0.15;;;2.30;99.90;;;;;;5013141;28;20463;-74
2022/01/12 01:36:32;;;;;;;0.30;0.30;;;2.30;99.90;;;;;;5012805;28;20113;-76
2022/01/12 01:38:58;;;;;;;0.85;0.43;;;2.30;99.90;;;;;;5013368;28;20084;-77
2022/01/12 01:41:24;;;;;;;0.73;0.73;;;2.30;99.90;;;;;;5013226;28;20030;-76
2022/01/12 01:54:44;;;;;;;0.28;0.28;;;2.10;99.90;;;;;;5012905;28;20037;-77
2022/01/12 01:57:10;;;;;;;0.13;0.13;;;2.10;99.90;;;;;;5012907;28;20022;-74
2022/01/12 01:59:35;;;;;;;0.00;0.00;;;2.10;99.90;;;;;;5002487;28;20041;-76
2022/01/12 02:02:01;;;;;;;0.47;0.47;;;2.10;99.90;;;;;;4993342;28;20815;-74
2022/01/12 02:04:27;;;;;;;0.47;0.43;;;2.00;99.90;;;;;;4993259;28;20524;-76
2022/01/12 02:06:54;;;;;;;0.25;0.25;;;2.00;99.90;;;;;;4993138;28;20030;-76
2022/01/12 02:09:20;;;;;;;0.10;0.10;;;2.00;99.90;;;;;;4993132;28;20015;-74
2022/01/12 02:11:53;;;;;;;1.08;0.77;;;1.90;99.90;;;;;;4993117;28;20026;-73
2022/01/12 02:14:19;;;;;;;0.00;0.00;;;1.90;99.90;;;;;;4993142;28;20054;-77
2022/01/12 02:17:00;;;;;;;0.43;0.43;;;1.90;99.90;;;;;;4993025;28;20034;-76
2022/01/12 02:41:03;;;;;;;0.00;0.00;;;1.80;99.90;;;;;;5013595;28;20117;-77
2022/01/12 02:51:35;;;;;;;0.38;0.38;;;1.60;99.90;;;;;;5019094;28;20409;-77
2022/01/12 02:54:03;;;;;;;0.52;0.52;;;1.60;99.90;;;;;;5020809;28;20018;-77
2022/01/12 02:56:32;;;;;;;0.10;0.10;;;1.60;99.90;;;;;;5031046;28;20030;-73
2022/01/12 02:58:59;;;;;;;1.10;0.50;;;1.60;99.90;;;;;;5017893;28;20018;-76
2022/01/12 03:03:58;;;;;;;1.20;1.13;;;1.60;99.90;;;;;;4996839;28;20110;-74
2022/01/12 03:06:33;;;;;;;0.08;0.08;;;1.60;99.90;;;;;;4999280;28;20073;-76
2022/01/12 03:08:59;;;;;;;0.40;0.40;;;1.60;99.90;;;;;;4998768;28;20018;-76
2022/01/12 03:11:27;;;;;;;0.00;0.00;;;1.60;99.90;;;;;;4996340;28;20073;-74
2022/01/12 03:13:53;;;;;;;0.75;0.75;;;1.60;99.90;;;;;;4996293;28;20485;-74
2022/01/12 03:16:23;;;;;;;0.10;0.10;;;1.50;99.90;;;;;;4996230;28;20569;-74
2022/01/12 03:18:51;;;;;;;0.05;0.05;;;1.60;99.90;;;;;;4995972;28;20504;-76
2022/01/12 03:21:20;;;;;;;2.35;1.58;;;1.60;99.90;;;;;;4996057;28;20041;-77
2022/01/12 03:23:46;;;;;;;0.15;0.15;;;1.60;99.90;;;;;;4995743;28;20025;-77
2022/01/12 03:26:12;;;;;;;0.45;0.35;;;1.50;99.90;;;;;;5000400;28;20096;-75
2022/01/12 03:28:40;;;;;;;1.38;1.13;;;1.50;99.90;;;;;;5015996;28;20149;-74
2022/01/12 03:36:26;;;;;;;0.20;0.20;;;1.30;99.90;;;;;;5015424;28;20578;-76
2022/01/12 03:38:53;;;;;;;10.48;3.00;;;1.30;99.90;;;;;;5015345;28;20022;-77
2022/01/12 03:41:20;;;;;;;1.45;0.90;;;1.20;99.90;;;;;;5015621;28;20495;-76
2022/01/12 03:43:47;;;;;;;0.55;0.40;;;1.20;99.90;;;;;;5015429;28;20033;-77
2022/01/12 03:46:16;;;;;;;0.10;0.10;;;1.10;99.90;;;;;;5015197;28;20037;-77
2022/01/12 03:48:42;;;;;;;0.45;0.45;;;1.00;99.90;;;;;;5015011;28;20021;-74
2022/01/12 03:51:08;;;;;;;0.28;0.28;;;1.00;99.90;;;;;;5014599;28;20030;-76
2022/01/12 03:53:33;;;;;;;2.53;1.67;;;1.00;99.90;;;;;;5013699;28;20532;-74
2022/01/12 03:55:59;;;;;;;0.75;0.47;;;0.90;99.90;;;;;;5015167;28;20026;-74
2022/01/12 03:58:24;;;;;;;3.10;1.35;;;0.90;99.90;;;;;;5012742;28;20026;-74
2022/01/12 04:00:50;;;;;;;0.17;0.17;;;1.00;99.90;;;;;;4995532;28;20084;-77
2022/01/12 04:03:16;;;;;;;0.88;0.88;;;1.10;99.90;;;;;;4995317;28;20031;-76
2022/01/12 04:08:21;;;;;;;0.08;0.08;;;1.00;99.90;;;;;;4995512;28;20029;-74
2022/01/12 04:10:57;;;;;;;0.00;0.00;;;1.00;99.90;;;;;;4995151;28;20109;-77
2022/01/12 04:13:25;;;;;;;0.47;0.47;;;0.90;99.90;;;;;;4993415;28;20029;-77
2022/01/12 04:15:55;;;;;;;1.15;1.05;;;1.00;99.90;;;;;;4994177;28;20029;-77
2022/01/12 04:18:21;;;;;;;0.00;0.00;;;1.00;99.90;;;;;;4994803;28;20441;-74
2022/01/12 04:20:50;;;;;;;0.25;0.25;;;1.00;99.90;;;;;;4994795;28;20034;-74
2022/01/12 04:23:18;;;;;;;0.20;0.20;;;1.00;99.90;;;;;;4994781;28;20029;-77
2022/01/12 04:25:50;;;;;;;1.20;0.75;;;1.00;99.90;;;;;;4995495;28;20026;-77
2022/01/12 04:28:17;;;;;;;0.00;0.00;;;1.00;99.90;;;;;;5014755;28;20124;-77
2022/01/12 04:30:43;;;;;;;0.40;0.40;;;0.90;99.90;;;;;;5014383;28;20421;-76
2022/01/12 04:33:10;;;;;;;0.30;0.30;;;0.90;99.90;;;;;;5012918;28;20121;-74
2022/01/12 04:35:39;;;;;;;0.28;0.28;;;0.90;99.90;;;;;;5014237;28;20493;-76
2022/01/12 04:38:05;;;;;;;0.30;0.30;;;0.80;99.90;;;;;;5013977;28;20018;-77
2022/01/12 04:40:33;;;;;;;0.05;0.03;;;0.80;99.90;;;;;;5013810;28;20500;-77
2022/01/12 04:42:59;;;;;;;0.05;0.05;;;0.80;99.90;;;;;;5014366;28;20080;-77
2022/01/12 04:50:24;;;;;;;0.75;0.73;;;0.80;99.90;;;;;;4994049;28;20038;-77
2022/01/12 04:52:50;;;;;;;1.17;1.08;;;0.70;99.90;;;;;;4994122;28;20544;-76
2022/01/12 04:55:16;;;;;;;0.65;0.43;;;0.70;99.90;;;;;;4994480;28;20541;-76
2022/01/12 04:57:42;;;;;;;1.77;1.38;;;0.70;99.90;;;;;;4994284;28;20026;-74
2022/01/12 05:00:15;;;;;;;0.38;0.38;;;0.60;99.90;;;;;;4994099;28;20503;-74
2022/01/12 05:08:36;;;;;;;0.40;0.40;;;0.60;99.90;;;;;;4993857;28;20116;-76
2022/01/12 05:13:49;;;;;;;0.03;0.03;;;0.70;99.90;;;;;;4994370;28;19916;-74
2022/01/12 05:16:15;;;;;;;0.45;0.45;;;0.70;99.90;;;;;;5025219;28;20030;-75
2022/01/12 05:18:44;;;;;;;0.00;0.00;;;0.60;99.90;;;;;;4993654;28;20068;-76
2022/01/12 05:21:11;;;;;;;0.30;0.30;;;0.60;99.90;;;;;;4993763;28;20022;-76
2022/01/12 05:23:38;;;;;;;0.68;0.68;;;0.50;99.90;;;;;;4993696;28;20026;-74
2022/01/12 05:26:06;;;;;;;0.57;0.57;;;0.50;99.90;;;;;;4997199;28;20500;-77
2022/01/12 05:28:32;;;;;;;0.52;0.52;;;0.40;99.90;;;;;;5013711;28;20469;-76
2022/01/12 05:30:58;;;;;;;0.40;0.40;;;0.30;99.90;;;;;;5013196;28;20093;-77
2022/01/12 05:33:25;;;;;;;0.28;0.28;;;0.30;99.90;;;;;;5011392;28;20022;-76
2022/01/12 05:35:52;;;;;;;0.00;0.00;;;0.20;99.90;;;;;;5013016;28;20439;-76
2022/01/12 05:38:18;;;;;;;0.10;0.10;;;0.20;99.90;;;;;;5013340;28;20105;-74
2022/01/12 05:40:49;;;;;;;0.38;0.38;;;0.20;99.90;;;;;;5013301;28;20453;-76
2022/01/12 05:43:24;;;;;;;0.35;0.35;;;0.20;99.90;;;;;;5013363;28;20401;-76
2022/01/12 05:45:51;;;;;;;5.95;0.52;;;0.20;99.90;;;;;;5013262;28;20053;-77
2022/01/12 05:50:42;;;;;;;0.50;0.50;;;0.20;99.90;;;;;;5012786;28;20045;-74
2022/01/12 05:53:09;;;;;;;0.30;0.30;;;0.20;99.90;;;;;;5012663;28;20021;-74
2022/01/12 05:55:35;;;;;;;0.03;0.03;;;0.20;99.90;;;;;;5013125;28;20030;-76
2022/01/12 05:58:00;;;;;;;0.40;0.40;;;0.30;99.90;;;;;;5012506;28;20036;-77
2022/01/12 06:00:28;;;;;;;2.40;1.20;;;0.30;99.90;;;;;;5010605;28;20030;-74
2022/01/12 06:02:54;;;;;;;0.10;0.10;;;0.30;99.90;;;;;;5012759;28;20025;-74
2022/01/12 06:05:22;;;;;;;0.00;0.00;;;0.30;99.90;;;;;;5013009;28;20034;-74
2022/01/12 06:07:49;;;;;;;0.50;0.50;;;0.40;99.90;;;;;;5012315;28;20034;-76
2022/01/12 06:10:16;;;;;;;0.85;0.85;;;0.40;99.90;;;;;;5012620;28;20462;-76
2022/01/12 06:12:42;;;;;;;0.88;0.75;;;0.40;99.90;;;;;;5012901;28;20017;-76
2022/01/12 06:15:09;;;;;;;0.25;0.20;;;0.30;99.90;;;;;;5012959;28;20447;-76
2022/01/12 06:17:35;;;;;;;0.28;0.28;;;0.30;99.90;;;;;;5012205;28;20481;-76
2022/01/12 06:20:02;;;;;;;0.20;0.20;;;0.30;99.90;;;;;;5012666;28;20393;-76
2022/01/12 06:22:28;;;;;;;1.70;0.60;;;0.30;99.90;;;;;;5015563;28;20481;-74
2022/01/12 06:24:56;;;;;;;0.10;0.10;;;0.20;99.90;;;;;;5016762;28;20087;-76
2022/01/12 06:27:23;;;;;;;0.40;0.40;;;0.20;99.90;;;;;;5016861;28;20472;-77
2022/01/12 06:30:04;;;;;;;0.00;0.00;;;0.10;99.90;;;;;;5016619;28;20046;-74
2022/01/12 06:32:30;;;;;;;0.65;0.65;;;0.10;99.90;;;;;;5016175;28;20094;-77
2022/01/12 06:34:56;;;;;;;0.13;0.13;;;0.10;99.90;;;;;;5014931;28;20101;-77
2022/01/12 06:37:22;;;;;;;0.05;0.05;;;0.10;99.90;;;;;;5013712;28;20116;-77
2022/01/12 06:39:49;;;;;;;0.40;0.40;;;0.00;99.90;;;;;;5016452;28;20029;-77
2022/01/12 06:42:15;;;;;;;0.30;0.30;;;0.00;99.90;;;;;;5016310;28;20045;-74
2022/01/12 06:44:40;;;;;;;0.57;0.57;;;0.00;99.90;;;;;;5016210;28;20489;-74
2022/01/12 06:47:06;;;;;;;2.30;0.47;;;-0.10;99.90;;;;;;5015794;28;20091;-76
2022/01/12 06:49:32;;;;;;;0.20;0.20;;;0.00;99.90;;;;;;5015816;28;20397;-74
2022/01/12 06:52:01;;;;;;;0.65;0.65;;;-0.10;99.90;;;;;;5014799;28;20112;-77
2022/01/12 06:54:27;;;;;;;0.95;0.95;;;-0.10;99.90;;;;;;5015633;28;20064;-75
2022/01/12 06:56:53;;;;;;;0.47;0.35;;;-0.10;99.90;;;;;;5016051;28;20539;-77
2022/01/12 06:59:19;;;;;;;1.67;0.98;;;-0.10;99.90;;;;;;5015504;28;20034;-77
2022/01/12 07:01:44;;;;;;;0.65;0.65;;;-0.10;99.90;;;;;;5018491;28;21187;-79
2022/01/12 07:04:11;;;;;;;0.32;0.32;;;-0.20;99.90;;;;;;5014706;28;20061;-75
2022/01/12 07:06:37;;;;;;;0.40;0.40;;;-0.20;99.90;;;;;;5016236;28;20080;-78
2022/01/12 07:09:04;;;;;;;0.50;0.50;;;-0.20;99.90;;;;;;5013115;28;20029;-74
2022/01/12 07:11:30;;;;;;;0.00;0.00;;;-0.20;99.90;;;;;;5009025;28;20784;-78
2022/01/12 07:13:55;;;;;;;0.20;0.20;;;-0.30;99.90;;;;;;5013677;28;20033;-77
2022/01/12 07:16:21;;;;;;;1.08;0.77;;;-0.30;99.90;;;;;;5014517;28;20026;-74
2022/01/12 07:18:47;;;;;;;0.70;0.70;;;-0.30;99.90;;;;;;5014327;28;20026;-77
2022/01/12 07:21:13;;;;;;;0.60;0.60;;;-0.30;99.90;;;;;;5015141;28;20018;-74
2022/01/12 07:23:38;;;;;;;0.50;0.50;;;-0.30;99.90;;;;;;5012164;28;20045;-74
2022/01/12 07:26:04;;;;;;;0.73;0.70;;;-0.40;99.90;;;;;;5012610;28;20473;-77
2022/01/12 07:28:30;;;;;;;0.35;0.35;;;-0.40;99.90;;;;;;5009268;28;20131;-77
2022/01/12 07:30:55;;;;;;;1.95;1.70;;;-0.40;99.90;;;;;;5013962;28;20058;-77
2022/01/12 07:33:22;;;;;;;6.63;3.00;;;-0.40;99.90;;;;;;5016361;28;20098;-74
2022/01/12 07:35:48;;;;;;;2.75;0.80;;;-0.50;99.90;;;;;;5021556;28;20100;-74
2022/01/12 07:38:14;;;;;;;16.35;3.03;;;-0.50;99.90;;;;;;5019548;28;20096;-78
2022/01/12 07:40:39;;;;;;;0.85;0.43;;;-0.50;99.90;;;;;;5014722;28;20037;-77
2022/01/12 07:43:06;;;;;;;0.15;0.10;;;-0.50;99.90;;;;;;5014484;28;20033;-77
2022/01/12 07:45:33;;;;;;;0.05;0.05;;;-0.60;99.90;;;;;;5028151;28;20029;-77
2022/01/12 07:47:59;;;;;;;1.40;0.90;;;-0.60;99.90;;;;;;5032761;28;20468;-74
2022/01/12 07:50:25;;;;;;;0.68;0.63;;;-0.60;99.90;;;;;;5016069;28;20052;-76
2022/01/12 07:52:53;;;;;;;0.45;0.45;;;-0.60;99.90;;;;;;5026931;28;20029;-77
2022/01/12 07:55:20;;;;;;;1.20;0.47;;;-0.60;99.90;;;;;;5017054;28;20104;-74
2022/01/12 07:57:47;;;;;;;0.10;0.10;;;-0.50;99.90;;;;;;5013176;28;20026;-76
2022/01/12 08:00:13;;;;;;;0.40;0.40;;;-0.50;99.90;;;;;;5004122;28;20460;-73
2022/01/12 08:02:39;;;;;;;0.15;0.15;;;-0.50;99.90;;;;;;4994020;28;20394;-73
2022/01/12 08:05:05;;;;;;;0.45;0.45;;;-0.50;99.90;;;;;;5013376;28;20040;-76
2022/01/12 08:07:35;;;;;;;2.55;1.30;;;-0.50;99.90;;;;;;5013580;28;20048;-73
2022/01/12 08:10:02;;;;;;;0.03;0.03;;;-0.50;99.90;;;;;;5012864;28;20022;-73
2022/01/12 08:12:27;;;;;;;0.00;0.00;;;-0.50;99.90;;;;;;5011101;28;20404;-73
2022/01/12 08:14:53;;;;;;;1.05;1.00;;;-0.50;99.90;;;;;;5007077;28;20026;-76
2022/01/12 08:17:18;;;;;;;1.38;1.17;;;-0.50;99.90;;;;;;5008462;28;20132;-76
2022/01/12 08:19:44;;;;;;;2.83;0.95;;;-0.50;99.90;;;;;;5008950;28;20142;-73
2022/01/12 08:22:10;;;;;;;0.75;0.75;;;-0.40;99.90;;;;;;5002309;28;20065;-76
2022/01/12 08:24:35;;;;;;;0.40;0.40;;;-0.40;99.90;;;;;;5013565;28;20048;-77
2022/01/12 08:27:01;;;;;;;0.20;0.20;;;-0.40;99.90;;;;;;5017932;28;20491;-73
2022/01/12 08:29:29;;;;;;;0.22;0.22;;;-0.30;99.90;;;;;;5011920;28;20061;-75
2022/01/12 08:31:55;;;;;;;0.13;0.13;;;-0.30;99.90;;;;;;5012241;28;20018;-76
2022/01/12 08:34:21;;;;;;;16.73;1.63;;;-0.20;99.90;;;;;;5012519;28;20045;-76
2022/01/12 08:36:46;;;;;;;2.20;0.70;;;-0.20;99.90;;;;;;5012245;28;20559;-76
2022/01/12 08:39:12;;;;;;;0.08;0.08;;;-0.20;99.90;;;;;;5010487;28;20057;-73
2022/01/12 08:41:38;;;;;;;1.52;0.68;;;-0.20;99.90;;;;;;5012262;28;20025;-74
2022/01/12 08:44:06;;;;;;;0.57;0.57;;;-0.10;99.90;;;;;;5012153;28;20113;-76
2022/01/12 08:46:32;;;;;;;0.05;0.05;;;-0.10;99.90;;;;;;5013946;28;20064;-77
2022/01/12 08:48:57;;;;;;;0.17;0.17;;;-0.10;99.90;;;;;;5011214;28;20049;-76
2022/01/12 08:51:24;;;;;;;0.20;0.20;;;0.00;99.90;;;;;;5012093;28;20030;-74
2022/01/12 08:53:49;;;;;;;0.35;0.35;;;0.00;99.90;;;;;;5012613;28;20440;-76
2022/01/12 08:56:15;;;;;;;0.77;0.77;;;0.10;99.90;;;;;;5012727;28;20061;-76
2022/01/12 08:58:41;;;;;;;0.93;0.93;;;0.10;99.90;;;;;;5019998;28;20019;-76
2022/01/12 09:01:10;;;;;;;1.35;1.27;;;0.20;99.90;;;;;;5014374;28;20084;-76
2022/01/12 09:03:37;;;;;;;0.13;0.13;;;0.30;99.90;;;;;;5029926;28;20029;-76
2022/01/12 09:06:03;;;;;;;2.25;0.80;;;0.40;99.90;;;;;;5033156;28;20501;-74
2022/01/12 09:08:29;;;;;;;0.17;0.17;;;0.30;99.90;;;;;;5029380;28;20029;-76
2022/01/12 09:10:55;;;;;;;0.20;0.20;;;0.30;99.90;;;;;;5017672;28;20060;-73
2022/01/12 09:13:21;;;;;;;0.38;0.38;;;0.40;99.90;;;;;;5032274;28;20021;-76
2022/01/12 09:15:46;;;;;;;0.35;0.35;;;0.50;99.90;;;;;;5023777;28;20026;-76
2022/01/12 09:18:12;;;;;;;0.65;0.65;;;0.40;99.90;;;;;;5011915;28;20088;-74
2022/01/12 09:20:38;;;;;;;0.95;0.95;;;0.50;99.90;;;;;;5011888;28;20500;-74
2022/01/12 09:23:05;;;;;;;2.08;0.65;;;0.60;99.90;;;;;;5011817;28;20448;-76
2022/01/12 09:25:35;;;;;;;2.92;0.82;;;0.60;99.90;;;;;;5010709;28;20096;-76
2022/01/12 09:28:02;;;;;;;0.35;0.35;;;0.70;99.90;;;;;;5011808;28;20441;-76
2022/01/12 09:30:29;;;;;;;5.57;3.00;;;0.70;99.90;;;;;;5005444;28;20046;-74
2022/01/12 09:32:55;;;;;;;0.10;0.10;;;0.80;99.90;;;;;;5011759;28;20069;-74
2022/01/12 09:35:21;;;;;;;0.03;0.03;;;0.90;99.90;;;;;;5008411;28;20030;-76
2022/01/12 09:37:47;;;;;;;0.90;0.90;;;1.00;99.90;;;;;;5011334;28;20032;-76
2022/01/12 09:40:13;;;;;;;0.30;0.30;;;1.00;99.90;;;;;;5019865;28;20033;-76
2022/01/12 09:42:42;;;;;;;0.13;0.13;;;1.00;99.90;;;;;;5022767;28;20052;-77
2022/01/12 09:45:14;;;;;;;0.32;0.32;;;1.10;99.90;;;;;;5028406;28;20034;-76
2022/01/12 09:47:39;;;;;;;0.32;0.10;;;1.00;99.90;;;;;;5031645;28;20068;-76
2022/01/12 09:50:06;;;;;;;0.82;0.82;;;1.10;99.90;;;;;;5013256;28;20030;-76
2022/01/12 09:52:32;;;;;;;0.88;0.88;;;1.10;99.90;;;;;;5011470;28;20061;-76
2022/01/12 09:54:57;;;;;;;9.48;1.75;;;1.20;99.90;;;;;;5011855;28;20491;-76
2022/01/12 09:57:23;;;;;;;0.03;0.03;;;1.20;99.90;;;;;;5017326;28;20021;-74
2022/01/12 09:59:48;;;;;;;0.75;0.43;;;1.30;99.90;;;;;;5011248;28;20072;-74
2022/01/12 10:02:16;;;;;;;0.00;0.00;;;1.30;99.90;;;;;;5011771;28;20088;-76
2022/01/12 10:04:42;;;;;;;2.05;1.60;;;1.50;99.90;;;;;;5025642;28;20040;-76
2022/01/12 10:07:07;;;;;;;0.00;0.00;;;1.60;99.90;;;;;;5031414;28;20400;-76
2022/01/12 10:09:39;;;;;;;0.10;0.10;;;1.60;99.90;;;;;;5031243;28;20048;-73
2022/01/12 10:12:17;;;;;;;0.82;0.82;;;1.70;99.90;;;;;;5029844;28;20070;-74
2022/01/12 10:14:55;;;;;;;1.48;1.38;;;1.60;99.90;;;;;;5010183;28;20386;-77
2022/01/12 10:17:30;;;;;;;1.77;1.67;;;1.70;99.90;;;;;;5012645;28;20045;-76
2022/01/12 10:20:13;;;;;;;0.77;0.77;;;1.80;99.90;;;;;;5030008;28;20079;-77
2022/01/12 10:22:45;;;;;;;0.52;0.52;;;1.90;99.90;;;;;;5015012;28;20061;-74
2022/01/12 10:25:19;;;;;;;0.30;0.30;;;1.90;99.90;;;;;;5011904;28;20509;-74
2022/01/12 10:27:45;;;;;;;0.80;0.30;;;2.10;99.90;;;;;;5016146;28;20038;-74
2022/01/12 10:30:19;;;;;;;0.00;0.00;;;2.20;99.90;;;;;;5021954;28;20129;-77
2022/01/12 10:32:45;;;;;;;1.08;1.08;;;2.10;99.90;;;;;;5030113;28;20025;-75
2022/01/12 10:35:11;;;;;;;0.85;0.52;;;2.20;99.90;;;;;;5013675;28;20056;-76
2022/01/12 10:37:36;;;;;;;0.20;0.20;;;2.20;99.90;;;;;;5007791;28;20037;-74
2022/01/12 10:40:04;;;;;;;0.52;0.52;;;2.20;99.90;;;;;;5011446;28;20159;-76
2022/01/12 10:42:30;;;;;;;1.65;1.55;;;2.30;99.90;;;;;;5010087;28;20068;-77
2022/01/12 10:45:01;;;;;;;0.00;0.00;;;2.50;99.90;;;;;;5011580;28;20041;-77
2022/01/12 10:47:29;;;;;;;4.85;1.48;;;2.60;99.90;;;;;;5009539;28;20388;-76
2022/01/12 10:49:55;;;;;;;0.28;0.28;;;2.80;99.90;;;;;;5009741;28;20018;-74
2022/01/12 10:52:26;;;;;;;1.77;0.38;;;2.80;99.90;;;;;;5010620;28;20026;-75
2022/01/12 10:54:58;;;;;;;0.75;0.75;;;2.70;99.90;;;;;;5011043;28;20559;-77
2022/01/12 10:57:29;;;;;;;0.05;0.05;;;2.90;99.90;;;;;;5009508;28;20057;-76
2022/01/12 11:00:21;;;;;;;1.55;0.45;;;2.90;99.90;;;;;;5006586;28;20026;-77
2022/01/12 11:02:51;;;;;;;0.15;0.15;;;2.90;99.90;;;;;;5003840;28;20026;-74
2022/01/12 11:05:18;;;;;;;0.90;0.88;;;2.90;99.90;;;;;;5022952;28;20077;-74
2022/01/12 11:07:44;;;;;;;1.48;0.82;;;2.90;99.90;;;;;;5012591;28;20068;-74
2022/01/12 11:10:11;;;;;;;1.63;0.75;;;2.90;99.90;;;;;;5014204;28;20446;-77
2022/01/12 11:12:39;;;;;;;0.03;0.03;;;3.00;99.90;;;;;;5014828;28;20519;-76
2022/01/12 11:15:09;;;;;;;0.20;0.20;;;3.10;99.90;;;;;;5008366;28;20121;-74
2022/01/12 11:17:38;;;;;;;1.45;1.35;;;3.20;99.90;;;;;;5014371;28;20018;-74
2022/01/12 11:20:07;;;;;;;11.07;1.15;;;3.30;99.90;;;;;;5014182;28;20022;-74
2022/01/12 11:22:41;;;;;;;0.55;0.55;;;3.50;99.90;;;;;;5012527;28;20022;-77
2022/01/12 11:25:42;;;;;;;0.47;0.47;;;3.40;99.90;;;;;;5014814;28;20497;-77
2022/01/12 11:28:09;;;;;;;0.35;0.35;;;3.30;99.90;;;;;;4987607;28;20046;-74
2022/01/12 11:30:37;;;;;;;0.05;0.05;;;3.20;99.90;;;;;;5014278;28;20057;-74
2022/01/12 11:33:05;;;;;;;0.38;0.30;;;3.30;99.90;;;;;;5014101;28;20475;-77
2022/01/12 11:35:39;;;;;;;0.68;0.65;;;3.70;99.90;;;;;;5013188;28;20030;-78
2022/01/12 11:38:05;;;;;;;0.43;0.43;;;3.90;99.90;;;;;;5012406;28;20029;-77
2022/01/12 11:40:42;;;;;;;0.88;0.75;;;3.90;99.90;;;;;;5013089;28;20018;-74
2022/01/12 11:43:46;;;;;;;0.08;0.08;;;4.00;99.90;;;;;;5013459;28;20022;-74
2022/01/12 11:46:17;;;;;;;1.42;1.00;;;4.20;99.90;;;;;;5009711;28;20034;-77
2022/01/12 11:48:47;;;;;;;1.05;0.98;;;4.40;99.90;;;;;;5012916;28;20072;-77
2022/01/12 11:51:16;;;;;;;0.28;0.28;;;4.50;99.90;;;;;;5012305;28;20041;-76
2022/01/12 11:53:55;;;;;;;2.10;0.75;;;4.40;99.90;;;;;;5009658;28;20084;-74
2022/01/12 11:56:26;;;;;;;0.98;0.95;;;4.50;99.90;;;;;;5012970;28;20037;-74
2022/01/12 11:59:06;;;;;;;1.27;0.93;;;4.70;99.90;;;;;;5012632;28;20034;-76
2022/01/12 12:01:44;;;;;;;0.95;0.95;;;4.80;99.90;;;;;;5006250;28;20024;-77
2022/01/12 12:04:20;;;;;;;2.53;0.82;;;4.90;99.90;;;;;;5010763;28;20033;-77
2022/01/12 12:06:46;;;;;;;4.85;1.02;;;5.00;99.90;;;;;;5010708;28;20045;-74
2022/01/12 12:09:18;;;;;;;0.30;0.30;;;5.00;99.90;;;;;;5013165;28;20037;-74
2022/01/12 12:11:51;;;;;;;0.52;0.17;;;5.00;99.90;;;;;;5013738;28;20421;-77
2022/01/12 12:14:17;;;;;;;;;;;5.10;99.90;;;;;;5014571;28;20053;-76
2022/01/12 12:16:43;;;;;;;1.08;0.98;;;5.20;99.90;;;;;;5013029;28;20008;-77
2022/01/12 12:19:08;;;;;;;0.55;0.55;;;5.30;99.90;;;;;;5006518;28;20073;-76
2022/01/12 12:21:35;;;;;;;1.95;0.40;;;5.50;99.90;;;;;;5013952;28;20514;-77
2022/01/12 12:24:12;;;;;;;1.45;1.08;;;5.60;99.90;;;;;;5008640;28;20018;-76
2022/01/12 12:26:46;;;;;;;0.47;0.47;;;5.60;99.90;;;;;;5012664;28;20022;-74
2022/01/12 12:29:15;;;;;;;0.65;0.63;;;5.60;99.90;;;;;;5012147;28;20029;-77
2022/01/12 12:31:45;;;;;;;0.60;0.60;;;5.70;99.90;;;;;;5013308;28;20033;-77
2022/01/12 12:34:10;;;;;;;0.10;0.10;;;5.80;99.90;;;;;;5012801;28;20022;-74
2022/01/12 12:36:36;;;;;;;0.47;0.43;;;6.00;99.90;;;;;;5012720;28;20037;-78
2022/01/12 12:39:07;;;;;;;1.35;1.08;;;5.90;99.90;;;;;;5009896;28;20014;-77
2022/01/12 12:41:42;;;;;;;0.20;0.20;;;6.00;99.90;;;;;;5010520;28;20018;-77
2022/01/12 12:44:21;;;;;;;0.28;0.28;;;6.00;99.90;;;;;;5009027;28;20101;-77
2022/01/12 12:46:49;;;;;;;1.27;0.50;;;6.20;99.90;;;;;;5011033;28;20047;-74
2022/01/12 12:49:15;;;;;;;0.30;0.30;;;6.20;99.90;;;;;;5010729;28;20068;-74
2022/01/12 12:51:41;;;;;;;3.20;1.10;;;6.20;99.90;;;;;;5011786;28;20021;-77
2022/01/12 12:54:06;;;;;;;2.13;0.20;;;6.30;99.90;;;;;;5012198;28;20085;-77
2022/01/12 12:56:40;;;;;;;0.95;0.82;;;6.20;99.90;;;;;;5012433;28;20022;-77
2022/01/12 12:59:07;;;;;;;0.00;0.00;;;6.20;99.90;;;;;;5005660;28;20030;-77
2022/01/12 13:01:33;;;;;;;2.83;0.32;;;6.30;99.90;;;;;;5012230;28;20473;-74
2022/01/12 13:04:00;;;;;;;5.80;1.25;;;6.40;99.90;;;;;;5012282;28;20045;-77
2022/01/12 13:06:31;;;;;;;0.22;0.22;;;6.40;99.90;;;;;;5012287;28;20060;-77
2022/01/12 13:09:09;;;;;;;0.55;0.55;;;6.50;99.90;;;;;;5012189;28;20034;-77
2022/01/12 13:11:44;;;;;;;0.20;0.20;;;6.50;99.90;;;;;;5009816;28;20050;-74
2022/01/12 13:14:11;;;;;;;0.55;0.55;;;6.60;99.90;;;;;;5011641;28;20022;-74
2022/01/12 13:16:52;;;;;;;0.00;0.00;;;6.60;99.90;;;;;;5013751;28;20026;-77
2022/01/12 13:22:32;;;;;;;0.10;0.10;;;6.80;99.90;;;;;;5011676;28;20036;-74
2022/01/12 13:25:00;;;;;;;0.45;0.45;;;6.90;99.90;;;;;;5012196;28;20080;-77
2022/01/12 13:27:27;;;;;;;0.22;0.22;;;7.10;99.90;;;;;;5012149;28;20389;-74
2022/01/12 13:29:53;;;;;;;3.10;0.95;;;7.00;99.90;;;;;;5011585;28;20045;-78
2022/01/12 13:32:19;;;;;;;2.65;0.35;;;7.20;99.90;;;;;;5012148;28;20025;-77
2022/01/12 13:34:59;;;;;;;3.33;1.08;;;7.30;99.90;;;;;;5010300;28;20026;-77
2022/01/12 13:37:25;;;;;;;0.25;0.25;;;7.20;99.90;;;;;;5011698;28;20029;-77
2022/01/12 13:40:14;;;;;;;0.88;0.88;;;7.20;99.90;;;;;;5010535;28;20038;-77
2022/01/12 13:43:06;;;;;;;9.38;1.42;;;7.90;99.90;;;;;;5011858;28;20048;-78
2022/01/12 13:45:44;;;;;;;0.47;0.32;;;8.30;99.90;;;;;;5010304;28;20034;-77
2022/01/12 13:48:14;;;;;;;0.15;0.15;;;8.20;99.90;;;;;;5011493;28;20030;-78
2022/01/12 13:50:43;;;;;;;1.35;0.77;;;8.10;99.90;;;;;;5011077;28;20033;-73
2022/01/12 13:53:09;;;;;;;1.17;0.57;;;7.90;99.90;;;;;;5011246;28;20022;-78
2022/01/12 13:55:36;;;;;;;0.77;0.63;;;7.40;99.90;;;;;;5009369;28;20030;-77
2022/01/12 13:58:09;;;;;;;0.00;0.00;;;7.30;99.90;;;;;;5009944;28;20033;-77
2022/01/12 14:00:37;;;;;;;0.13;0.13;;;7.40;99.90;;;;;;5019327;28;20465;-78
2022/01/12 14:03:14;;;;;;;0.60;0.60;;;7.30;99.90;;;;;;5031659;28;20029;-78
2022/01/12 14:05:41;;;;;;;1.02;0.50;;;7.20;99.90;;;;;;5028073;28;20034;-73
2022/01/12 14:08:14;;;;;;;0.13;0.13;;;7.20;99.90;;;;;;5010994;28;20076;-77
2022/01/12 14:10:45;;;;;;;0.20;0.20;;;7.00;99.90;;;;;;5011242;28;20021;-77
2022/01/12 14:13:11;;;;;;;0.10;0.10;;;6.90;99.90;;;;;;5011783;28;20022;-77
2022/01/12 14:15:37;;;;;;;0.38;0.38;;;6.90;99.90;;;;;;5011634;28;20454;-77
2022/01/12 14:18:06;;;;;;;1.45;0.45;;;6.90;99.90;;;;;;5010824;28;20022;-73
2022/01/12 14:20:40;;;;;;;0.73;0.73;;;7.10;99.90;;;;;;5011474;28;20026;-77
2022/01/12 14:23:08;;;;;;;0.20;0.20;;;7.10;99.90;;;;;;5010204;28;20420;-77
2022/01/12 14:25:39;;;;;;;1.25;1.15;;;6.90;99.90;;;;;;5009956;28;20428;-78
2022/01/12 14:28:06;;;;;;;0.52;0.52;;;7.00;99.90;;;;;;5029150;28;20021;-75